Time;durP1;ratioP1;P1;durP2;ratioP2;P2;SDS_P1;SDS_P2;PMS_P1;PMS_P2;Temp;Humidity;BMP_temperature;BMP_pressure;BME280_temperature;BME280_humidity;BME280_pressure;Samples;Min_cycle;Max_cycle;Signal;HPM_P1;HPM_P2
2022/05/20 00:00:29;;;;;;;4.80;2.77;;;20.50;99.90;;;;;;1043822;28;20017;-71
2022/05/20 00:01:05;;;;;;;4.33;3.30;;;20.50;99.90;;;;;;1043611;28;20021;-71
2022/05/20 00:01:35;;;;;;;3.05;2.58;;;20.50;99.90;;;;;;1043664;28;20017;-71
2022/05/20 00:02:07;;;;;;;3.57;2.80;;;20.50;99.90;;;;;;1043271;28;20267;-71
2022/05/20 00:02:38;;;;;;;3.95;3.05;;;20.50;99.90;;;;;;1042952;28;20029;-74
2022/05/20 00:03:11;;;;;;;4.77;2.93;;;20.50;99.90;;;;;;1043489;28;20013;-73
2022/05/20 00:03:42;;;;;;;4.22;2.75;;;20.50;99.90;;;;;;1043077;28;20745;-73
2022/05/20 00:04:13;;;;;;;4.15;2.92;;;20.50;99.90;;;;;;1039731;28;20501;-73
2022/05/20 00:04:44;;;;;;;3.93;3.10;;;20.50;99.90;;;;;;1039035;28;20115;-73
2022/05/20 00:05:17;;;;;;;4.90;2.97;;;20.50;99.90;;;;;;1039196;28;20017;-73
2022/05/20 00:05:48;;;;;;;4.15;3.17;;;20.50;99.90;;;;;;1039593;28;20087;-73
2022/05/20 00:06:18;;;;;;;4.77;2.60;;;20.50;99.90;;;;;;1043367;28;20044;-73
2022/05/20 00:06:49;;;;;;;4.83;2.73;;;20.50;99.90;;;;;;1043537;28;20021;-73
2022/05/20 00:07:20;;;;;;;3.47;2.90;;;20.50;99.90;;;;;;1043738;28;20100;-72
2022/05/20 00:07:51;;;;;;;4.00;3.03;;;20.50;99.90;;;;;;1043611;28;20017;-72
2022/05/20 00:08:21;;;;;;;4.63;2.63;;;20.50;99.90;;;;;;1043677;28;20514;-72
2022/05/20 00:08:53;;;;;;;5.50;3.40;;;20.50;99.90;;;;;;1043867;28;20270;-73
2022/05/20 00:09:24;;;;;;;3.15;2.45;;;20.50;99.90;;;;;;1043505;28;20017;-74
2022/05/20 00:09:54;;;;;;;3.23;2.40;;;20.50;99.90;;;;;;1043294;28;20021;-74
2022/05/20 00:10:25;;;;;;;3.90;3.10;;;20.40;99.90;;;;;;1043078;28;20471;-73
2022/05/20 00:10:56;;;;;;;5.07;3.17;;;20.40;99.90;;;;;;1043264;28;20029;-73
2022/05/20 00:11:26;;;;;;;4.20;2.75;;;20.40;99.90;;;;;;1043214;28;20017;-74
2022/05/20 00:11:57;;;;;;;4.57;2.90;;;20.40;99.90;;;;;;1043291;28;20515;-73
2022/05/20 00:12:28;;;;;;;4.10;3.00;;;20.40;99.90;;;;;;1043102;28;20074;-74
2022/05/20 00:13:00;;;;;;;4.07;3.30;;;20.40;99.90;;;;;;1043477;28;20095;-74
2022/05/20 00:13:30;;;;;;;3.97;3.03;;;20.40;99.90;;;;;;1043006;28;20033;-73
2022/05/20 00:14:02;;;;;;;3.47;3.00;;;20.40;99.90;;;;;;1043327;28;20485;-73
2022/05/20 00:14:34;;;;;;;2.87;2.47;;;20.40;99.90;;;;;;1043174;28;20534;-74
2022/05/20 00:15:07;;;;;;;6.20;2.97;;;20.40;99.90;;;;;;1039543;28;20028;-74
2022/05/20 00:15:38;;;;;;;4.05;2.75;;;20.40;99.90;;;;;;1042839;28;20020;-73
2022/05/20 00:16:09;;;;;;;5.13;3.72;;;20.40;99.90;;;;;;1039320;28;20033;-75
2022/05/20 00:16:41;;;;;;;2.70;2.20;;;20.40;99.90;;;;;;1035245;28;20026;-74
2022/05/20 00:17:12;;;;;;;3.38;2.70;;;20.30;99.90;;;;;;1035302;28;20042;-73
2022/05/20 00:17:43;;;;;;;3.40;3.10;;;20.30;99.90;;;;;;1035366;28;20065;-74
2022/05/20 00:18:14;;;;;;;4.13;3.10;;;20.40;99.90;;;;;;1035530;28;20018;-74
2022/05/20 00:18:45;;;;;;;4.93;2.87;;;20.30;99.90;;;;;;1035047;28;20032;-74
2022/05/20 00:19:16;;;;;;;4.95;3.22;;;20.30;99.90;;;;;;1039211;28;20079;-73
2022/05/20 00:19:47;;;;;;;3.90;2.77;;;20.30;99.90;;;;;;1039229;28;20063;-73
2022/05/20 00:20:20;;;;;;;4.13;2.80;;;20.30;99.90;;;;;;1043218;28;20041;-74
2022/05/20 00:20:52;;;;;;;3.55;2.85;;;20.40;99.90;;;;;;1043044;28;20267;-73
2022/05/20 00:21:22;;;;;;;4.25;2.95;;;20.30;99.90;;;;;;1043406;28;20021;-74
2022/05/20 00:21:53;;;;;;;3.17;2.80;;;20.30;99.90;;;;;;1043008;28;20064;-74
2022/05/20 00:22:24;;;;;;;2.87;2.43;;;20.30;99.90;;;;;;1043437;28;20360;-74
2022/05/20 00:22:55;;;;;;;4.40;2.97;;;20.30;99.90;;;;;;1042969;28;20035;-73
2022/05/20 00:23:26;;;;;;;4.32;3.10;;;20.30;99.90;;;;;;1043347;28;20021;-73
2022/05/20 00:23:57;;;;;;;3.03;2.50;;;20.30;99.90;;;;;;1042680;28;20127;-74
2022/05/20 00:24:27;;;;;;;5.03;2.70;;;20.30;99.90;;;;;;1039274;28;20080;-73
2022/05/20 00:25:48;;;;;;;3.90;2.88;;;20.30;99.90;;;;;;1038869;28;20131;-73
2022/05/20 00:26:18;;;;;;;3.87;3.10;;;20.20;99.90;;;;;;1039211;28;20013;-73
2022/05/20 00:26:50;;;;;;;4.37;3.23;;;20.30;99.90;;;;;;1039399;28;20408;-73
2022/05/20 00:27:21;;;;;;;3.38;2.90;;;20.20;99.90;;;;;;1039379;28;20024;-72
2022/05/20 00:27:51;;;;;;;3.37;3.00;;;20.20;99.90;;;;;;1039462;28;20028;-73
2022/05/20 00:28:25;;;;;;;2.70;2.50;;;20.30;99.90;;;;;;1039394;28;20030;-72
2022/05/20 00:28:56;;;;;;;4.75;3.10;;;20.20;99.90;;;;;;1039215;28;20091;-71
2022/05/20 00:29:26;;;;;;;4.33;3.03;;;20.20;99.90;;;;;;1039549;28;20022;-73
2022/05/20 00:29:58;;;;;;;3.97;2.90;;;20.20;99.90;;;;;;1039220;28;20576;-70
2022/05/20 00:30:30;;;;;;;4.30;2.90;;;20.20;99.90;;;;;;1038936;28;20030;-71
2022/05/20 00:31:05;;;;;;;5.30;3.25;;;20.20;99.90;;;;;;1038991;28;20104;-71
2022/05/20 00:31:36;;;;;;;4.20;2.85;;;20.20;99.90;;;;;;1038997;28;20021;-71
2022/05/20 00:32:07;;;;;;;4.30;3.10;;;20.20;99.90;;;;;;1038971;28;20048;-71
2022/05/20 00:32:38;;;;;;;4.50;2.40;;;20.20;99.90;;;;;;1038896;28;20021;-71
2022/05/20 00:33:09;;;;;;;5.43;2.90;;;20.20;99.90;;;;;;1038945;28;20021;-71
2022/05/20 00:33:39;;;;;;;3.50;2.87;;;20.20;99.90;;;;;;1035156;28;20033;-72
2022/05/20 00:34:10;;;;;;;3.93;2.57;;;20.20;99.90;;;;;;1034916;28;20018;-70
2022/05/20 00:34:41;;;;;;;4.00;2.83;;;20.20;99.90;;;;;;1034933;28;20021;-70
2022/05/20 00:35:13;;;;;;;4.33;2.87;;;20.20;99.90;;;;;;1039333;28;20021;-71
2022/05/20 00:35:45;;;;;;;5.28;3.33;;;20.20;99.90;;;;;;1038863;28;20346;-71
2022/05/20 00:36:16;;;;;;;4.63;3.17;;;20.20;99.90;;;;;;1039392;28;20125;-71
2022/05/20 00:36:47;;;;;;;3.03;2.72;;;20.20;99.90;;;;;;1039468;28;20083;-71
2022/05/20 00:37:18;;;;;;;4.10;2.70;;;20.20;99.90;;;;;;1038962;28;20091;-71
2022/05/20 00:37:49;;;;;;;3.87;2.90;;;20.20;99.90;;;;;;1038993;28;20108;-71
2022/05/20 00:38:20;;;;;;;3.00;2.72;;;20.20;99.90;;;;;;1039013;28;20048;-72
2022/05/20 00:38:51;;;;;;;3.33;3.03;;;20.20;99.90;;;;;;1042404;28;20063;-71
2022/05/20 00:39:21;;;;;;;3.57;2.67;;;20.20;99.90;;;;;;1043653;28;20023;-71
2022/05/20 00:39:52;;;;;;;4.97;2.90;;;20.20;99.90;;;;;;1043335;28;20010;-70
2022/05/20 00:40:25;;;;;;;4.53;2.53;;;20.20;99.90;;;;;;1043685;28;20460;-71
2022/05/20 00:40:58;;;;;;;4.88;3.03;;;20.20;99.90;;;;;;1043347;28;20102;-71
2022/05/20 00:41:29;;;;;;;4.07;2.50;;;20.20;99.90;;;;;;1043611;28;20024;-72
2022/05/20 00:42:10;;;;;;;3.92;3.35;;;20.20;99.90;;;;;;1043051;28;20017;-71
2022/05/20 00:42:41;;;;;;;3.08;2.78;;;20.20;99.90;;;;;;1042710;28;20027;-71
2022/05/20 00:43:29;;;;;;;4.95;2.85;;;20.20;99.90;;;;;;1043242;28;20013;-71
2022/05/20 00:44:00;;;;;;;3.80;3.20;;;20.20;99.90;;;;;;1042733;28;20471;-72
2022/05/20 00:44:31;;;;;;;4.13;2.83;;;20.20;99.90;;;;;;1043115;28;20500;-71
2022/05/20 00:45:03;;;;;;;5.77;3.17;;;20.20;99.90;;;;;;1042878;28;20020;-71
2022/05/20 00:45:34;;;;;;;3.92;3.03;;;20.20;99.90;;;;;;1042814;28;20013;-70
2022/05/20 00:46:08;;;;;;;4.03;3.30;;;20.20;99.90;;;;;;1043173;28;20040;-71
2022/05/20 00:46:39;;;;;;;3.65;2.85;;;20.20;99.90;;;;;;1042819;28;20085;-71
2022/05/20 00:47:12;;;;;;;2.77;2.50;;;20.20;99.90;;;;;;1043599;28;20102;-70
2022/05/20 00:47:43;;;;;;;4.35;3.28;;;20.20;99.90;;;;;;1043610;28;20052;-71
2022/05/20 00:48:14;;;;;;;5.15;3.10;;;20.20;99.90;;;;;;1042764;28;20013;-71
2022/05/20 00:48:46;;;;;;;4.83;3.10;;;20.20;99.90;;;;;;1043279;28;20020;-71
2022/05/20 00:49:17;;;;;;;4.10;3.33;;;20.20;99.90;;;;;;1043010;28;20025;-71
2022/05/20 00:49:52;;;;;;;4.05;2.80;;;20.20;99.90;;;;;;1043319;28;20021;-72
2022/05/20 00:50:23;;;;;;;3.55;2.92;;;20.20;99.90;;;;;;1043430;28;20431;-72
2022/05/20 00:51:19;;;;;;;4.90;3.17;;;20.20;99.90;;;;;;1042871;28;20088;-71
2022/05/20 00:51:53;;;;;;;3.72;3.05;;;20.10;99.90;;;;;;1039189;28;20294;-70
2022/05/20 00:52:26;;;;;;;3.67;3.22;;;20.10;99.90;;;;;;1038870;28;20561;-71
2022/05/20 00:52:58;;;;;;;3.15;2.70;;;20.10;99.90;;;;;;1035285;28;20010;-70
2022/05/20 00:53:39;;;;;;;3.35;2.85;;;20.10;99.90;;;;;;1034775;28;20006;-69
2022/05/20 00:54:12;;;;;;;3.42;3.13;;;20.10;99.90;;;;;;1035536;28;20108;-70
2022/05/20 00:54:47;;;;;;;5.35;3.17;;;20.10;99.90;;;;;;1040812;28;20089;-71
2022/05/20 00:55:21;;;;;;;3.28;2.90;;;20.10;99.90;;;;;;1042881;28;20078;-71
2022/05/20 00:55:52;;;;;;;4.00;3.00;;;20.10;99.90;;;;;;1039012;28;20057;-72
2022/05/20 00:56:28;;;;;;;3.90;3.13;;;20.10;99.90;;;;;;1034688;28;20049;-72
2022/05/20 00:57:14;;;;;;;3.40;2.85;;;20.10;99.90;;;;;;1035141;28;20014;-71
2022/05/20 00:58:00;;;;;;;4.22;3.40;;;20.10;99.90;;;;;;1037635;28;20014;-70
2022/05/20 00:58:30;;;;;;;5.72;3.63;;;20.10;99.90;;;;;;1038796;28;20022;-70
2022/05/20 00:59:03;;;;;;;4.60;3.23;;;20.10;99.90;;;;;;1039059;28;20048;-71
2022/05/20 00:59:36;;;;;;;3.20;2.75;;;20.10;99.90;;;;;;1038725;28;20013;-72
2022/05/20 01:00:10;;;;;;;3.75;3.00;;;20.10;99.90;;;;;;1039357;28;20014;-71
2022/05/20 01:00:51;;;;;;;5.13;3.63;;;20.10;99.90;;;;;;1038774;28;20643;-72
2022/05/20 01:01:22;;;;;;;3.72;3.20;;;20.00;99.90;;;;;;1039415;28;20020;-71
2022/05/20 01:01:58;;;;;;;4.63;3.05;;;20.00;99.90;;;;;;1038996;28;20017;-73
2022/05/20 01:02:31;;;;;;;3.30;2.92;;;20.00;99.90;;;;;;1038979;28;20152;-72
2022/05/20 01:03:06;;;;;;;3.08;2.60;;;20.00;99.90;;;;;;1034930;28;20017;-72
2022/05/20 01:03:38;;;;;;;5.18;3.63;;;20.00;99.90;;;;;;1034502;28;20052;-72
2022/05/20 01:04:08;;;;;;;5.20;3.22;;;20.00;99.90;;;;;;1036099;28;20574;-71
2022/05/20 01:04:40;;;;;;;5.10;3.43;;;20.00;99.90;;;;;;1038636;28;20750;-71
2022/05/20 01:05:32;;;;;;;3.60;3.17;;;20.00;99.90;;;;;;1039205;28;20018;-72
2022/05/20 01:06:02;;;;;;;4.72;3.35;;;20.00;99.90;;;;;;1039051;28;20022;-70
2022/05/20 01:06:33;;;;;;;2.80;2.60;;;20.00;99.90;;;;;;1039339;28;20044;-72
2022/05/20 01:07:05;;;;;;;3.57;2.50;;;20.00;99.90;;;;;;1039312;28;20025;-71
2022/05/20 01:07:39;;;;;;;3.35;2.88;;;19.90;99.90;;;;;;1038675;28;20013;-71
2022/05/20 01:08:13;;;;;;;4.90;3.25;;;20.00;99.90;;;;;;1038984;28;20053;-71
2022/05/20 01:08:44;;;;;;;3.88;2.53;;;20.00;99.90;;;;;;1038845;28;20109;-71
2022/05/20 01:09:15;;;;;;;6.17;3.10;;;19.90;99.90;;;;;;1038987;28;20029;-72
2022/05/20 01:09:46;;;;;;;4.30;2.90;;;20.00;99.90;;;;;;1039499;28;20236;-71
2022/05/20 01:10:16;;;;;;;3.38;2.58;;;19.90;99.90;;;;;;1038645;28;20095;-71
2022/05/20 01:10:47;;;;;;;4.60;3.07;;;19.90;99.90;;;;;;1038994;28;20029;-71
2022/05/20 01:11:18;;;;;;;4.37;3.30;;;19.90;99.90;;;;;;1038828;28;20428;-71
2022/05/20 01:11:48;;;;;;;5.10;3.53;;;19.90;99.90;;;;;;1038956;28;20026;-70
2022/05/20 01:12:20;;;;;;;4.07;3.50;;;19.90;99.90;;;;;;1039115;28;20667;-71
2022/05/20 01:12:52;;;;;;;3.08;2.78;;;19.90;99.90;;;;;;1039305;28;20025;-72
2022/05/20 01:13:28;;;;;;;3.92;3.00;;;19.90;99.90;;;;;;1040873;28;20017;-72
2022/05/20 01:13:59;;;;;;;4.78;3.00;;;19.90;99.90;;;;;;1043411;28;20029;-71
2022/05/20 01:14:29;;;;;;;3.33;2.93;;;19.90;99.90;;;;;;1042715;28;20027;-71
2022/05/20 01:15:00;;;;;;;4.30;3.20;;;19.90;99.90;;;;;;1043159;28;20108;-70
2022/05/20 01:15:31;;;;;;;4.77;3.10;;;19.90;99.90;;;;;;1042800;28;20013;-71
2022/05/20 01:16:07;;;;;;;3.67;3.23;;;19.90;99.90;;;;;;1043159;28;20028;-71
2022/05/20 01:16:38;;;;;;;3.97;3.20;;;19.90;99.90;;;;;;1043231;28;20095;-71
2022/05/20 01:17:09;;;;;;;3.83;3.17;;;19.90;99.90;;;;;;1043475;28;20048;-71
2022/05/20 01:17:40;;;;;;;3.13;2.83;;;19.90;99.90;;;;;;1043104;28;20306;-71
2022/05/20 01:18:12;;;;;;;3.22;2.90;;;19.90;99.90;;;;;;1043739;28;20027;-70
2022/05/20 01:18:45;;;;;;;3.60;2.65;;;19.90;99.90;;;;;;1042515;28;20025;-71
2022/05/20 01:19:35;;;;;;;4.07;3.17;;;19.90;99.90;;;;;;1043155;28;20103;-71
2022/05/20 01:20:12;;;;;;;3.28;2.70;;;19.90;99.90;;;;;;1042980;28;20052;-71
2022/05/20 01:20:53;;;;;;;3.50;2.30;;;19.90;99.90;;;;;;1042551;28;20066;-71
2022/05/20 01:21:24;;;;;;;3.55;3.10;;;19.90;99.90;;;;;;1038865;28;20071;-70
2022/05/20 01:21:55;;;;;;;3.70;3.40;;;19.90;99.90;;;;;;1034590;28;20018;-70
2022/05/20 01:22:36;;;;;;;3.97;3.27;;;20.00;99.90;;;;;;1036589;28;20069;-70
2022/05/20 01:23:12;;;;;;;5.45;3.03;;;20.00;99.90;;;;;;1034991;28;20013;-71
2022/05/20 01:23:43;;;;;;;3.78;2.90;;;20.00;99.90;;;;;;1036753;28;20056;-71
2022/05/20 01:24:13;;;;;;;3.10;2.67;;;20.00;99.90;;;;;;1034796;28;20079;-71
2022/05/20 01:24:44;;;;;;;4.47;3.47;;;19.90;99.90;;;;;;1035636;28;20655;-71
2022/05/20 01:25:15;;;;;;;5.83;3.33;;;19.90;99.90;;;;;;1038921;28;20017;-72
2022/05/20 01:25:51;;;;;;;4.65;2.83;;;20.00;99.90;;;;;;1038714;28;20017;-71
2022/05/20 01:26:22;;;;;;;3.45;3.15;;;19.90;99.90;;;;;;1043121;28;20044;-70
2022/05/20 01:26:52;;;;;;;4.10;2.80;;;19.90;99.90;;;;;;1041845;28;20020;-71
2022/05/20 01:27:23;;;;;;;4.33;3.33;;;19.90;99.90;;;;;;1039377;28;20022;-71
2022/05/20 01:27:53;;;;;;;4.50;3.20;;;19.90;99.90;;;;;;1038979;28;20100;-71
2022/05/20 01:28:28;;;;;;;2.93;2.63;;;19.90;99.90;;;;;;1039220;28;20542;-71
2022/05/20 01:28:58;;;;;;;3.63;2.70;;;19.90;99.90;;;;;;1038980;28;20018;-70
2022/05/20 01:29:30;;;;;;;4.40;3.03;;;19.90;99.90;;;;;;1039286;28;20017;-70
2022/05/20 01:30:00;;;;;;;2.97;2.50;;;19.90;99.90;;;;;;1039010;28;20022;-72
2022/05/20 01:30:32;;;;;;;3.53;2.93;;;19.90;99.90;;;;;;1039359;28;20049;-71
2022/05/20 01:31:12;;;;;;;3.25;2.88;;;19.90;99.90;;;;;;1039060;28;20108;-71
2022/05/20 01:31:42;;;;;;;4.13;2.90;;;19.90;99.90;;;;;;1039178;28;20014;-70
2022/05/20 01:32:13;;;;;;;3.47;2.87;;;19.90;99.90;;;;;;1038891;28;20029;-71
2022/05/20 01:32:44;;;;;;;3.10;2.80;;;19.90;99.90;;;;;;1039285;28;20013;-71
2022/05/20 01:33:33;;;;;;;4.32;3.17;;;19.90;99.90;;;;;;1038996;28;20365;-71
2022/05/20 01:34:04;;;;;;;3.25;2.95;;;19.80;99.90;;;;;;1039328;28;20385;-71
2022/05/20 01:34:34;;;;;;;5.60;3.73;;;19.80;99.90;;;;;;1039002;28;20508;-70
2022/05/20 01:35:11;;;;;;;3.73;3.00;;;19.80;99.90;;;;;;1042540;28;20009;-69
2022/05/20 01:35:44;;;;;;;4.20;2.78;;;19.80;99.90;;;;;;1043149;28;20063;-69
2022/05/20 01:36:18;;;;;;;4.35;3.20;;;19.80;99.90;;;;;;1043181;28;20862;-70
2022/05/20 01:36:49;;;;;;;2.75;2.55;;;19.80;99.90;;;;;;1043326;28;20020;-69
2022/05/20 01:37:19;;;;;;;3.20;2.70;;;19.80;99.90;;;;;;1043214;28;20013;-69
2022/05/20 01:37:50;;;;;;;3.90;2.60;;;19.80;99.90;;;;;;1043187;28;20101;-70
2022/05/20 01:38:21;;;;;;;4.50;3.05;;;19.80;99.90;;;;;;1042620;28;20456;-72
2022/05/20 01:38:53;;;;;;;3.30;2.90;;;19.80;99.90;;;;;;1043112;28;20013;-70
2022/05/20 01:39:23;;;;;;;3.47;3.03;;;19.80;99.90;;;;;;1042825;28;20016;-72
2022/05/20 01:39:54;;;;;;;3.70;3.07;;;19.70;99.90;;;;;;1041607;28;20116;-69
2022/05/20 01:40:27;;;;;;;3.17;2.50;;;19.80;99.90;;;;;;1034693;28;20021;-70
2022/05/20 01:41:04;;;;;;;4.22;3.00;;;19.80;99.90;;;;;;1034556;28;20014;-70
2022/05/20 01:42:03;;;;;;;5.50;3.45;;;19.70;99.90;;;;;;1034428;28;20025;-70
2022/05/20 01:42:44;;;;;;;3.22;2.78;;;19.70;99.90;;;;;;1032994;28;20085;-70
2022/05/20 01:43:40;;;;;;;3.47;3.05;;;19.70;99.90;;;;;;1038854;28;20438;-72
2022/05/20 01:44:35;;;;;;;3.95;2.97;;;19.70;99.90;;;;;;1043120;28;20059;-71
2022/05/20 01:45:26;;;;;;;3.45;3.15;;;19.70;99.90;;;;;;1043145;28;20096;-70
2022/05/20 01:46:02;;;;;;;3.05;2.60;;;19.70;99.90;;;;;;1040290;28;20112;-71
2022/05/20 01:46:45;;;;;;;4.13;3.15;;;;;;;;;;1038191;28;20028;-72
2022/05/20 01:47:38;;;;;;;4.13;3.30;;;19.70;99.90;;;;;;1034780;28;20099;-71
2022/05/20 01:48:39;;;;;;;6.13;3.03;;;19.70;99.90;;;;;;1035349;28;20022;-71
2022/05/20 01:49:25;;;;;;;3.22;2.72;;;19.60;99.90;;;;;;1040126;28;20048;-72
2022/05/20 01:50:07;;;;;;;3.50;2.67;;;19.70;99.90;;;;;;1038341;28;20048;-70
2022/05/20 01:50:47;;;;;;;3.10;2.78;;;19.60;99.90;;;;;;1038591;28;20031;-71
2022/05/20 01:51:19;;;;;;;2.97;2.67;;;19.70;99.90;;;;;;1038711;28;20105;-70
2022/05/20 01:52:03;;;;;;;5.25;3.30;;;19.70;99.90;;;;;;1038791;28;20013;-69
2022/05/20 01:53:01;;;;;;;3.42;3.00;;;19.70;99.90;;;;;;1039126;28;20518;-71
2022/05/20 01:53:39;;;;;;;4.95;3.17;;;19.70;99.90;;;;;;1038823;28;20029;-71
2022/05/20 01:54:39;;;;;;;4.85;3.85;;;19.70;99.90;;;;;;1039394;28;20762;-70
2022/05/20 01:55:16;;;;;;;4.28;3.15;;;19.70;99.90;;;;;;1037811;28;20033;-71
2022/05/20 01:56:02;;;;;;;4.20;3.28;;;19.70;99.90;;;;;;1042893;28;20134;-70
2022/05/20 01:56:38;;;;;;;3.58;2.95;;;19.70;99.90;;;;;;1042676;28;20025;-70
2022/05/20 01:57:35;;;;;;;4.60;3.47;;;19.70;99.90;;;;;;1042990;28;20088;-70
2022/05/20 01:58:10;;;;;;;;;;;19.70;99.90;;;;;;1040899;28;20045;-70
2022/05/20 01:58:47;;;;;;;4.60;3.60;;;19.70;99.90;;;;;;1042505;28;19905;-70
2022/05/20 01:59:23;;;;;;;5.65;3.15;;;19.70;99.90;;;;;;1042980;28;20509;-70
2022/05/20 02:00:09;;;;;;;3.50;3.08;;;19.70;99.90;;;;;;1042951;28;20009;-70
2022/05/20 02:00:41;;;;;;;4.38;3.10;;;19.70;99.90;;;;;;1042480;28;20083;-71
2022/05/20 02:01:20;;;;;;;3.75;3.33;;;19.70;99.90;;;;;;1043047;28;20141;-70
2022/05/20 02:02:07;;;;;;;3.40;3.10;;;19.70;99.90;;;;;;1042640;28;20094;-70
2022/05/20 02:03:03;;;;;;;4.35;3.25;;;19.70;99.90;;;;;;1042472;28;20029;-71
2022/05/20 02:03:46;;;;;;;4.75;3.83;;;19.70;99.90;;;;;;1042886;28;20100;-71
2022/05/20 02:04:23;;;;;;;3.50;2.40;;;19.70;99.90;;;;;;1039587;28;20684;-71
2022/05/20 02:05:02;;;;;;;5.45;3.38;;;19.70;99.90;;;;;;1042647;28;20292;-71
2022/05/20 02:05:46;;;;;;;5.00;3.40;;;19.60;99.90;;;;;;1041993;28;20061;-71
2022/05/20 02:06:32;;;;;;;5.32;3.25;;;19.60;99.90;;;;;;1038570;28;20021;-71
2022/05/20 02:07:09;;;;;;;3.92;3.13;;;19.60;99.90;;;;;;1034362;28;20021;-72
2022/05/20 02:07:44;;;;;;;3.90;2.97;;;19.60;99.90;;;;;;1034600;28;20025;-71
2022/05/20 02:08:22;;;;;;;3.85;3.05;;;19.60;99.90;;;;;;1038223;28;20030;-71
2022/05/20 02:09:12;;;;;;;5.15;3.00;;;19.60;99.90;;;;;;1038728;28;20567;-73
2022/05/20 02:09:54;;;;;;;5.88;3.45;;;19.60;99.90;;;;;;1039053;28;20021;-71
2022/05/20 02:10:37;;;;;;;3.30;2.88;;;19.50;99.90;;;;;;1038849;28;20346;-71
2022/05/20 02:11:15;;;;;;;5.47;3.03;;;19.50;99.90;;;;;;1038503;28;20029;-71
2022/05/20 02:11:50;;;;;;;3.28;2.85;;;19.50;99.90;;;;;;1038624;28;20109;-71
2022/05/20 02:12:26;;;;;;;4.28;2.78;;;19.50;99.90;;;;;;1038519;28;20036;-71
2022/05/20 02:12:59;;;;;;;4.47;3.08;;;19.50;99.90;;;;;;1038892;28;20417;-72
2022/05/20 02:13:32;;;;;;;4.22;3.38;;;19.50;99.90;;;;;;1041531;28;20026;-71
2022/05/20 02:14:12;;;;;;;5.72;3.47;;;19.50;99.90;;;;;;1042477;28;20060;-71
2022/05/20 02:14:52;;;;;;;3.97;2.97;;;19.50;99.90;;;;;;1038824;28;20381;-71
2022/05/20 02:15:30;;;;;;;3.67;2.97;;;19.50;99.90;;;;;;1038340;28;20037;-71
2022/05/20 02:16:08;;;;;;;5.97;3.63;;;19.50;99.90;;;;;;1038213;28;20037;-71
2022/05/20 02:16:44;;;;;;;4.15;3.40;;;19.50;99.90;;;;;;1041845;28;20108;-71
2022/05/20 02:17:21;;;;;;;4.05;2.95;;;19.50;99.90;;;;;;1042672;28;20031;-71
2022/05/20 02:18:00;;;;;;;4.53;3.28;;;19.50;99.90;;;;;;1040411;28;20078;-71
2022/05/20 02:18:52;;;;;;;3.94;2.94;;;19.50;99.90;;;;;;1038481;28;20385;-71
2022/05/20 02:19:29;;;;;;;4.60;3.67;;;19.50;99.90;;;;;;1034227;28;20113;-73
2022/05/20 02:20:06;;;;;;;4.50;3.00;;;19.50;99.90;;;;;;1034625;28;20776;-70
2022/05/20 02:20:47;;;;;;;2.83;2.55;;;19.50;99.90;;;;;;1038508;28;20021;-71
2022/05/20 02:21:24;;;;;;;4.95;3.40;;;19.50;99.90;;;;;;1037878;28;20060;-70
2022/05/20 02:21:58;;;;;;;3.35;2.90;;;19.50;99.90;;;;;;1034298;28;20099;-70
2022/05/20 02:22:33;;;;;;;3.63;3.20;;;19.50;99.90;;;;;;1034511;28;20072;-72
2022/05/20 02:23:08;;;;;;;4.88;3.05;;;19.50;99.90;;;;;;1032477;28;20443;-70
2022/05/20 02:23:45;;;;;;;3.85;3.20;;;19.40;99.90;;;;;;1031853;28;20417;-70
2022/05/20 02:24:21;;;;;;;3.47;2.88;;;19.40;99.90;;;;;;1034661;28;20022;-72
2022/05/20 02:24:53;;;;;;;3.30;3.00;;;19.40;99.90;;;;;;1034324;28;20864;-70
2022/05/20 02:25:30;;;;;;;3.75;2.88;;;19.40;99.90;;;;;;1035021;28;20353;-70
2022/05/20 02:26:09;;;;;;;4.45;3.38;;;19.40;99.90;;;;;;1036315;28;20171;-72
2022/05/20 02:26:45;;;;;;;3.47;2.70;;;19.40;99.90;;;;;;1040604;28;20029;-72
2022/05/20 02:27:21;;;;;;;4.50;2.83;;;19.40;99.90;;;;;;1042813;28;20723;-72
2022/05/20 02:28:09;;;;;;;3.65;3.00;;;19.40;99.90;;;;;;1038280;28;20064;-72
2022/05/20 02:28:44;;;;;;;4.75;3.10;;;19.40;99.90;;;;;;1038578;28;20025;-72
2022/05/20 02:29:21;;;;;;;4.35;2.92;;;19.40;99.90;;;;;;1038449;28;20121;-72
2022/05/20 02:30:03;;;;;;;4.82;2.88;;;19.40;99.90;;;;;;1034597;28;20097;-73
2022/05/20 02:30:34;;;;;;;4.63;2.95;;;19.40;99.90;;;;;;1037559;28;20028;-72
2022/05/20 02:31:11;;;;;;;6.10;3.05;;;19.40;99.90;;;;;;1038626;28;20481;-73
2022/05/20 02:31:52;;;;;;;3.47;2.90;;;19.50;99.90;;;;;;1038474;28;20108;-73
2022/05/20 02:32:34;;;;;;;3.50;2.63;;;19.50;99.90;;;;;;1038621;28;20128;-73
2022/05/20 02:33:17;;;;;;;3.63;3.00;;;19.50;99.90;;;;;;1034694;28;20128;-73
2022/05/20 02:33:49;;;;;;;2.95;2.58;;;19.50;99.90;;;;;;1038727;28;20021;-72
2022/05/20 02:34:19;;;;;;;3.22;2.67;;;19.50;99.90;;;;;;1038571;28;20583;-72
2022/05/20 02:34:51;;;;;;;4.20;2.93;;;19.50;99.90;;;;;;1038746;28;20672;-73
2022/05/20 02:35:22;;;;;;;4.15;2.80;;;19.50;99.90;;;;;;1038830;28;20025;-72
2022/05/20 02:36:01;;;;;;;6.13;3.20;;;19.40;99.90;;;;;;1039033;28;20036;-73
2022/05/20 02:36:33;;;;;;;3.42;2.70;;;19.40;99.90;;;;;;1038922;28;20060;-72
2022/05/20 02:37:28;;;;;;;4.28;2.47;;;19.50;99.90;;;;;;1039037;28;20064;-72
2022/05/20 02:38:08;;;;;;;4.43;3.30;;;19.50;99.90;;;;;;1033836;28;20037;-73
2022/05/20 02:38:39;;;;;;;3.17;2.67;;;19.50;99.90;;;;;;1038893;28;20014;-73
2022/05/20 02:39:16;;;;;;;3.73;2.87;;;19.40;99.90;;;;;;1039266;28;20583;-74
2022/05/20 02:39:47;;;;;;;5.18;2.72;;;19.50;99.90;;;;;;1043170;28;20068;-73
2022/05/20 02:40:19;;;;;;;3.70;2.80;;;19.50;99.90;;;;;;1042847;28;20087;-73
2022/05/20 02:40:52;;;;;;;7.68;3.22;;;;;;;;;;1042514;28;20796;-73
2022/05/20 02:41:23;;;;;;;2.88;2.40;;;19.50;99.90;;;;;;1042445;28;20112;-72
2022/05/20 02:41:53;;;;;;;4.00;2.97;;;19.40;99.90;;;;;;1042668;28;20124;-72
2022/05/20 02:42:27;;;;;;;2.40;2.20;;;19.40;99.90;;;;;;1042776;28;20029;-73
2022/05/20 02:42:57;;;;;;;4.45;3.00;;;19.50;99.90;;;;;;1038450;28;20400;-72
2022/05/20 02:43:28;;;;;;;3.33;2.87;;;19.40;99.90;;;;;;1038505;28;20030;-71
2022/05/20 02:43:59;;;;;;;2.87;2.47;;;19.40;99.90;;;;;;1038364;28;20029;-71
2022/05/20 02:44:29;;;;;;;4.50;3.07;;;19.40;99.90;;;;;;1038537;28;20186;-72
2022/05/20 02:45:00;;;;;;;5.00;3.23;;;19.40;99.90;;;;;;1034516;28;20033;-71
2022/05/20 02:45:31;;;;;;;4.43;2.38;;;19.40;99.90;;;;;;1038545;28;20026;-72
2022/05/20 02:46:02;;;;;;;3.53;2.97;;;19.40;99.90;;;;;;1038489;28;20124;-72
2022/05/20 02:46:32;;;;;;;3.67;2.53;;;19.40;99.90;;;;;;1038206;28;20267;-72
2022/05/20 02:47:03;;;;;;;3.43;2.50;;;19.40;99.90;;;;;;1038367;28;20532;-72
2022/05/20 02:47:35;;;;;;;3.10;2.80;;;19.40;99.90;;;;;;1038717;28;20021;-72
2022/05/20 02:48:06;;;;;;;3.72;2.58;;;19.40;99.90;;;;;;1038394;28;20152;-72
2022/05/20 02:48:37;;;;;;;3.13;2.80;;;19.40;99.90;;;;;;1038466;28;20041;-71
2022/05/20 02:49:07;;;;;;;3.43;2.40;;;19.40;99.90;;;;;;1041620;28;20036;-71
2022/05/20 02:49:38;;;;;;;2.93;2.60;;;19.40;99.90;;;;;;1042706;28;20036;-72
2022/05/20 02:50:10;;;;;;;2.97;2.50;;;19.30;99.90;;;;;;1038317;28;20026;-71
2022/05/20 02:50:41;;;;;;;3.97;3.25;;;19.30;99.90;;;;;;1042577;28;20100;-71
2022/05/20 02:51:12;;;;;;;3.60;2.88;;;19.30;99.90;;;;;;1042335;28;20028;-70
2022/05/20 02:51:42;;;;;;;4.83;2.97;;;19.30;99.90;;;;;;1042669;28;20051;-69
2022/05/20 02:52:13;;;;;;;3.83;3.10;;;19.30;99.90;;;;;;1042436;28;20834;-71
2022/05/20 02:52:44;;;;;;;5.15;3.40;;;19.30;99.90;;;;;;1038595;28;20137;-70
2022/05/20 02:53:15;;;;;;;4.83;3.70;;;19.30;99.90;;;;;;1042561;28;20021;-71
2022/05/20 02:53:47;;;;;;;3.10;2.80;;;19.30;99.90;;;;;;1043017;28;20024;-70
2022/05/20 02:54:17;;;;;;;4.28;3.35;;;19.30;99.90;;;;;;1036259;28;20322;-70
2022/05/20 02:54:48;;;;;;;3.33;2.60;;;19.30;99.90;;;;;;1038806;28;20515;-70
2022/05/20 02:55:19;;;;;;;3.13;2.60;;;19.30;99.90;;;;;;1038315;28;20026;-71
2022/05/20 02:55:49;;;;;;;4.45;3.63;;;19.30;99.90;;;;;;1034590;28;20037;-71
2022/05/20 02:56:20;;;;;;;5.00;2.77;;;19.30;99.90;;;;;;1038353;28;20044;-71
2022/05/20 02:56:50;;;;;;;3.17;2.67;;;19.30;99.90;;;;;;1038707;28;20373;-71
2022/05/20 02:57:21;;;;;;;4.33;2.83;;;19.30;99.90;;;;;;1038254;28;20060;-70
2022/05/20 02:57:51;;;;;;;3.70;3.20;;;19.30;99.90;;;;;;1034712;28;20026;-71
2022/05/20 03:04:10;;;;;;;3.58;3.28;;;19.20;99.90;;;;;;1039938;28;20080;-71
2022/05/20 03:04:41;;;;;;;3.60;2.97;;;19.20;99.90;;;;;;1039536;28;20053;-69
2022/05/20 03:05:13;;;;;;;5.33;3.30;;;19.20;99.90;;;;;;1039933;28;20026;-73
2022/05/20 03:05:44;;;;;;;5.30;3.20;;;19.20;99.90;;;;;;1039201;28;20653;-73
2022/05/20 03:06:14;;;;;;;3.43;3.13;;;19.20;99.90;;;;;;1039650;28;20838;-73
2022/05/20 03:06:52;;;;;;;3.53;2.27;;;19.20;99.90;;;;;;1034973;28;20128;-72
2022/05/20 03:07:22;;;;;;;3.60;2.92;;;19.20;99.90;;;;;;1036430;28;20025;-71